Time;durP1;ratioP1;P1;durP2;ratioP2;P2;SDS_P1;SDS_P2;PMS_P1;PMS_P2;Temp;Humidity;BMP_temperature;BMP_pressure;BME280_temperature;BME280_humidity;BME280_pressure;Samples;Min_cycle;Max_cycle;Signal;HPM_P1;HPM_P2
2022/08/23 00:01:48;;;;;;;8.80;4.22;;;;;;;17.00;80.33;101234.66;5045945;28;20033;-83
2022/08/23 00:04:17;;;;;;;9.15;4.25;;;;;;;16.96;80.28;101244.50;5047856;28;20040;-83
2022/08/23 00:06:44;;;;;;;10.00;3.87;;;;;;;16.90;80.51;101248.31;5050244;28;20056;-82
2022/08/23 00:09:10;;;;;;;9.20;4.40;;;;;;;16.85;81.71;101248.38;5049932;28;20291;-82
2022/08/23 00:11:41;;;;;;;9.70;4.05;;;;;;;16.83;81.51;101245.97;5048606;28;20029;-83
2022/08/23 00:14:10;;;;;;;11.00;4.63;;;;;;;16.81;80.69;101235.41;5035899;28;20040;-82
2022/08/23 00:16:36;;;;;;;7.18;4.13;;;;;;;16.80;81.11;101236.50;5029775;28;20056;-82
2022/08/23 00:19:04;;;;;;;6.95;4.63;;;;;;;16.76;80.73;101234.69;5030568;28;20022;-82
2022/08/23 00:21:29;;;;;;;6.55;4.00;;;;;;;16.68;80.91;101230.72;5029328;28;20034;-82
2022/08/23 00:23:55;;;;;;;9.67;4.83;;;;;;;16.64;81.40;101235.09;5029600;28;20095;-82
2022/08/23 00:26:20;;;;;;;8.82;4.53;;;;;;;16.65;82.16;101234.00;5030628;28;20042;-83
2022/08/23 00:28:48;;;;;;;9.43;4.40;;;;;;;16.63;82.44;101244.31;5029625;28;20033;-82
2022/08/23 00:31:14;;;;;;;11.88;4.30;;;;;;;16.61;82.75;101243.81;5037298;28;20029;-83
2022/08/23 00:33:39;;;;;;;7.57;4.47;;;;;;;16.54;82.71;101232.53;5043407;28;20034;-82
2022/08/23 00:36:05;;;;;;;8.93;4.43;;;;;;;16.48;82.75;101229.06;5045565;28;20083;-82
2022/08/23 00:38:30;;;;;;;9.03;4.00;;;;;;;16.44;82.50;101233.44;5049581;28;20393;-83
2022/08/23 00:40:55;;;;;;;7.47;4.30;;;;;;;16.37;83.50;101227.56;5047760;28;20029;-82
2022/08/23 00:49:30;;;;;;;9.83;4.97;;;;;;;16.39;83.53;101242.44;5049557;28;20051;-82
2022/08/23 00:52:12;;;;;;;7.60;4.33;;;;;;;16.33;83.03;101240.84;5048074;28;20372;-82
2022/08/23 00:54:40;;;;;;;12.32;4.38;;;;;;;16.29;84.30;101237.94;5031217;28;20076;-82
2022/08/23 00:57:09;;;;;;;10.95;4.38;;;;;;;16.26;84.31;101238.50;5033946;28;20035;-82
2022/08/23 00:59:35;;;;;;;7.88;4.30;;;;;;;16.25;84.12;101233.38;5054273;28;20028;-82
2022/08/23 01:02:01;;;;;;;6.38;4.10;;;;;;;16.20;83.99;101240.44;5053456;28;20025;-82
2022/08/23 01:04:31;;;;;;;8.33;4.43;;;;;;;16.12;85.11;101241.06;5041452;28;20026;-82
2022/08/23 01:07:50;;;;;;;9.57;4.00;;;;;;;16.13;83.56;101245.38;5012423;28;20033;-83
2022/08/23 01:10:24;;;;;;;9.82;4.15;;;;;;;16.05;84.88;101254.13;4949892;28;20047;-82
2022/08/23 01:12:57;;;;;;;6.47;3.70;;;;;;;16.09;84.31;101249.72;5022898;28;20041;-82
2022/08/23 01:15:31;;;;;;;8.63;3.95;;;;;;;16.07;84.55;101248.41;5049982;28;20032;-82
2022/08/23 01:18:05;;;;;;;6.95;4.13;;;;;;;16.04;85.28;101247.88;5049702;28;20192;-83
2022/08/23 01:20:38;;;;;;;7.47;4.13;;;;;;;16.01;85.39;101242.25;5047864;28;20033;-82
2022/08/23 01:23:25;;;;;;;6.22;4.20;;;;;;;16.00;83.53;101241.44;5041727;28;20041;-82
2022/08/23 01:25:51;;;;;;;10.27;4.30;;;;;;;15.93;85.41;101243.69;5032224;28;20520;-82
2022/08/23 01:28:17;;;;;;;7.87;3.97;;;;;;;15.89;86.55;101239.94;5031826;28;20315;-83
2022/08/23 01:30:45;;;;;;;8.00;4.30;;;;;;;15.88;86.03;101247.25;5051387;28;20048;-82
2022/08/23 01:33:10;;;;;;;10.20;4.32;;;;;;;15.81;86.62;101243.19;5043804;28;20485;-83
2022/08/23 01:35:46;;;;;;;9.87;4.23;;;;;;;15.76;87.19;101241.34;5015745;28;20179;-82
2022/08/23 01:38:13;;;;;;;7.22;4.07;;;;;;;15.75;86.66;101243.25;5033955;28;20481;-82
2022/08/23 01:40:40;;;;;;;8.43;4.38;;;;;;;15.64;87.67;101236.31;5034745;28;20080;-82
2022/08/23 01:43:07;;;;;;;9.98;4.57;;;;;;;15.65;87.45;101242.53;5046599;28;20032;-82
2022/08/23 01:45:33;;;;;;;8.45;4.32;;;;;;;15.56;87.87;101240.41;5052533;28;20091;-82
2022/08/23 01:47:58;;;;;;;5.78;4.40;;;;;;;15.52;87.25;101236.66;5053015;28;20036;-82
2022/08/23 01:50:25;;;;;;;15.20;4.47;;;;;;;15.52;88.07;101233.94;5050710;28;20526;-82
2022/08/23 01:52:51;;;;;;;8.00;4.28;;;;;;;15.49;88.13;101239.94;5037484;28;20021;-82
2022/08/23 01:55:18;;;;;;;9.00;4.35;;;;;;;15.52;88.50;101242.06;5036988;28;20045;-82
2022/08/23 01:57:45;;;;;;;9.10;4.45;;;;;;;15.49;88.82;101247.22;5032259;28;20488;-82
2022/08/23 02:00:11;;;;;;;8.60;4.05;;;;;;;15.51;88.90;101245.06;5032684;28;20029;-82
2022/08/23 02:02:36;;;;;;;6.18;4.57;;;;;;;15.40;89.06;101239.72;5038256;28;20023;-82
2022/08/23 02:05:04;;;;;;;8.20;4.40;;;;;;;15.48;88.78;101251.00;5052269;28;20107;-82
2022/08/23 02:07:30;;;;;;;7.60;4.50;;;;;;;15.51;88.05;101247.75;5051825;28;20032;-81
2022/08/23 02:09:56;;;;;;;10.10;4.93;;;;;;;15.51;88.15;101245.06;5051322;28;20041;-82
2022/08/23 02:12:21;;;;;;;8.73;5.13;;;;;;;15.47;87.89;101242.13;5038438;28;20029;-82
2022/08/23 02:14:47;;;;;;;7.03;4.67;;;;;;;15.45;88.13;101247.78;5052458;28;20037;-82
2022/08/23 02:17:14;;;;;;;10.90;4.85;;;;;;;15.42;87.93;101242.97;5051986;28;20037;-82
2022/08/23 02:19:42;;;;;;;8.77;4.80;;;;;;;15.49;87.39;101248.03;5051093;28;20047;-82
2022/08/23 02:22:08;;;;;;;9.52;5.60;;;;;;;15.50;87.93;101252.34;5038706;28;20037;-82
2022/08/23 02:24:34;;;;;;;9.85;5.35;;;;;;;15.51;87.52;101243.16;5040757;28;20036;-82
2022/08/23 02:27:03;;;;;;;8.17;6.17;;;;;;;15.55;87.53;101246.09;5050345;28;20531;-82
2022/08/23 02:29:29;;;;;;;13.18;5.75;;;;;;;15.56;87.59;101247.72;5050996;28;20047;-82
2022/08/23 02:31:58;;;;;;;11.48;6.10;;;;;;;15.51;88.62;101237.78;5044890;28;20471;-82
2022/08/23 02:34:24;;;;;;;11.32;6.07;;;;;;;15.57;87.81;101249.34;5032322;28;20030;-82
2022/08/23 02:36:49;;;;;;;9.90;6.00;;;;;;;15.52;88.15;101247.47;5031540;28;20068;-82
2022/08/23 02:39:16;;;;;;;11.13;6.40;;;;;;;15.60;88.10;101252.28;5031816;28;20048;-82
2022/08/23 02:41:42;;;;;;;10.93;6.68;;;;;;;15.59;88.41;101244.47;5038519;28;20017;-82
2022/08/23 02:44:09;;;;;;;11.25;6.65;;;;;;;15.65;88.25;101250.63;5033457;28;20041;-82
2022/08/23 02:46:35;;;;;;;12.02;6.82;;;;;;;15.65;88.10;101248.72;5032186;28;20540;-82
2022/08/23 02:49:01;;;;;;;12.05;6.40;;;;;;;15.62;88.49;101245.78;5049196;28;20021;-82
2022/08/23 02:51:26;;;;;;;10.83;7.00;;;;;;;15.62;87.40;101241.19;5048249;28;20037;-82
2022/08/23 02:53:52;;;;;;;12.90;6.43;;;;;;;15.71;87.42;101254.88;5034946;28;20037;-82
2022/08/23 02:56:17;;;;;;;11.25;6.18;;;;;;;15.72;87.19;101253.78;5013815;28;20030;-82
2022/08/23 02:58:44;;;;;;;12.27;5.77;;;;;;;15.69;87.99;101262.50;5033683;28;20623;-82
2022/08/23 03:01:24;;;;;;;9.65;6.70;;;;;;;15.66;88.20;101261.13;5049154;28;20044;-82
2022/08/23 03:03:49;;;;;;;9.98;6.53;;;;;;;15.68;87.99;101261.66;5051068;28;20033;-82
2022/08/23 03:06:15;;;;;;;10.80;6.20;;;;;;;15.66;88.41;101263.84;5051902;28;20048;-82
2022/08/23 03:08:42;;;;;;;12.50;6.28;;;;;;;15.63;87.95;101255.50;5033200;28;20063;-81
2022/08/23 03:11:13;;;;;;;9.23;6.10;;;;;;;15.65;87.58;101266.84;5032431;28;20666;-82
2022/08/23 03:13:44;;;;;;;9.83;6.03;;;;;;;15.60;88.30;101254.19;5037264;28;20288;-82
2022/08/23 03:16:11;;;;;;;10.88;6.13;;;;;;;15.63;89.79;101260.91;5032696;28;20477;-82
2022/08/23 03:18:37;;;;;;;11.68;6.15;;;;;;;15.68;88.62;101268.97;5051205;28;20485;-81
2022/08/23 03:21:04;;;;;;;8.52;5.88;;;;;;;15.71;89.04;101273.78;5047511;28;20037;-82
2022/08/23 03:23:31;;;;;;;9.75;6.10;;;;;;;15.71;89.42;101276.50;5046808;28;20122;-82
2022/08/23 03:25:57;;;;;;;13.30;6.10;;;;;;;15.79;88.83;101284.00;5046829;28;20029;-82
2022/08/23 03:28:23;;;;;;;12.48;6.25;;;;;;;15.80;88.59;101280.22;5031281;28;20025;-82
2022/08/23 03:30:49;;;;;;;8.67;5.97;;;;;;;15.83;88.63;101276.13;5032557;28;20565;-82
2022/08/23 03:33:15;;;;;;;11.60;5.50;;;;;;;15.86;88.77;101283.72;5041953;28;20026;-82
2022/08/23 03:35:41;;;;;;;8.80;5.72;;;;;;;15.83;88.62;101276.13;5031680;28;20029;-83
2022/08/23 03:38:06;;;;;;;13.80;6.17;;;;;;;15.88;88.35;101279.66;5032248;28;20033;-82
2022/08/23 03:40:32;;;;;;;9.15;5.47;;;;;;;15.89;88.03;101283.16;5030247;28;20028;-82
2022/08/23 03:42:57;;;;;;;9.17;5.50;;;;;;;15.89;88.30;101272.34;5042139;28;20106;-82
2022/08/23 03:45:22;;;;;;;9.60;6.10;;;;;;;15.88;88.32;101276.13;5050678;28;20488;-82
2022/08/23 03:47:48;;;;;;;9.30;5.70;;;;;;;15.98;87.75;101280.66;5050408;28;20113;-82
2022/08/23 03:50:13;;;;;;;10.37;6.30;;;;;;;15.96;88.27;101285.53;5031109;28;20613;-82
2022/08/23 03:52:38;;;;;;;11.95;5.78;;;;;;;16.00;88.46;101286.59;5047789;28;20021;-82
2022/08/23 03:55:04;;;;;;;10.50;6.10;;;;;;;16.03;87.76;101291.44;5033782;28;20033;-82
2022/08/23 03:57:29;;;;;;;10.50;6.00;;;;;;;15.95;87.68;101271.22;5050353;28;20025;-83
2022/08/23 03:59:55;;;;;;;11.32;6.25;;;;;;;16.00;87.78;101289.28;5030482;28;20112;-82
2022/08/23 04:02:23;;;;;;;8.87;5.87;;;;;;;15.91;87.74;101275.59;5036275;28;20366;-81
2022/08/23 04:04:48;;;;;;;9.83;5.60;;;;;;;15.89;88.04;101288.56;5045201;28;20146;-81
2022/08/23 04:07:17;;;;;;;12.83;5.67;;;;;;;15.81;87.96;101289.13;5017053;28;20871;-82
2022/08/23 04:09:43;;;;;;;14.70;6.78;;;;;;;15.70;87.97;101278.41;5029911;28;20625;-82
2022/08/23 04:12:08;;;;;;;11.07;6.17;;;;;;;15.67;88.96;101281.66;5044860;28;20108;-82
2022/08/23 04:14:34;;;;;;;11.37;6.40;;;;;;;15.48;89.26;101270.72;5050325;28;20491;-82
2022/08/23 04:17:00;;;;;;;11.60;6.88;;;;;;;15.52;89.55;101287.97;5049834;28;20072;-81
2022/08/23 04:19:25;;;;;;;12.17;6.87;;;;;;;15.56;89.18;101301.75;5049930;28;20062;-81
2022/08/23 04:21:51;;;;;;;9.80;6.97;;;;;;;15.51;89.11;101294.47;5048135;28;20541;-82
2022/08/23 04:24:17;;;;;;;12.60;7.07;;;;;;;15.53;89.38;101300.38;5049328;28;20029;-81
2022/08/23 04:26:43;;;;;;;12.93;7.25;;;;;;;15.50;89.46;101300.97;5049683;28;20051;-82
2022/08/23 04:29:10;;;;;;;9.93;6.67;;;;;;;15.47;90.10;101298.81;5050172;28;20481;-81
2022/08/23 04:31:35;;;;;;;11.43;6.80;;;;;;;15.47;89.83;101300.69;5029857;28;20381;-81
2022/08/23 04:34:02;;;;;;;10.90;6.45;;;;;;;15.48;89.60;101303.13;5045959;28;20029;-82
2022/08/23 04:36:33;;;;;;;11.75;6.40;;;;;;;15.47;90.33;101300.69;5043255;28;20077;-81
2022/08/23 04:38:58;;;;;;;10.53;6.67;;;;;;;15.53;90.19;101302.28;5049773;28;20025;-82
2022/08/23 04:44:09;;;;;;;14.30;7.60;;;;;;;15.59;90.41;101312.78;5049556;28;20087;-81
2022/08/23 04:46:35;;;;;;;14.20;7.63;;;;;;;15.60;90.90;101305.50;5049886;28;20021;-81
2022/08/23 04:49:00;;;;;;;9.80;7.43;;;;;;;15.67;90.19;101305.19;5050072;28;20040;-82
2022/08/23 04:51:26;;;;;;;16.30;7.50;;;;;;;15.66;90.47;101298.16;5048086;28;20531;-81
2022/08/23 04:53:51;;;;;;;10.93;7.40;;;;;;;15.76;90.92;101314.28;5049397;28;20083;-82
2022/08/23 04:56:17;;;;;;;12.83;7.17;;;;;;;15.81;90.07;101316.97;5049976;28;20025;-81
2022/08/23 04:58:43;;;;;;;9.35;7.25;;;;;;;15.80;90.59;101303.72;5049665;28;20056;-82
2022/08/23 05:01:09;;;;;;;10.93;7.17;;;;;;;15.88;89.83;101309.38;5048966;28;20029;-81
2022/08/23 05:03:36;;;;;;;12.63;8.30;;;;;;;15.95;90.59;101319.06;5048985;28;20025;-81
2022/08/23 05:06:03;;;;;;;10.50;7.07;;;;;;;16.01;90.25;101323.34;5049728;28;20025;-82
2022/08/23 05:08:30;;;;;;;13.57;8.38;;;;;;;16.04;90.29;101323.56;5053247;28;20480;-81
2022/08/23 05:10:58;;;;;;;14.02;7.68;;;;;;;16.10;89.87;101318.94;5051999;28;20064;-82
2022/08/23 05:13:24;;;;;;;12.73;7.72;;;;;;;16.06;90.19;101326.00;5048779;28;20538;-81
2022/08/23 05:15:51;;;;;;;12.20;7.70;;;;;;;16.12;90.21;101324.06;5051272;28;20037;-81
2022/08/23 05:18:17;;;;;;;14.98;7.70;;;;;;;16.16;90.11;101325.91;5053408;28;20037;-81
2022/08/23 05:20:42;;;;;;;12.53;7.77;;;;;;;16.21;89.57;101319.66;5051278;28;20028;-82
2022/08/23 05:23:07;;;;;;;10.50;6.77;;;;;;;16.26;89.11;101325.03;5046263;28;20033;-82
2022/08/23 05:25:51;;;;;;;10.13;6.57;;;;;;;16.35;88.61;101319.81;5052858;28;20541;-82
2022/08/23 05:28:24;;;;;;;12.90;6.90;;;;;;;16.41;88.62;101332.19;5039602;28;20555;-83
2022/08/23 05:31:10;;;;;;;11.03;6.87;;;;;;;16.47;88.64;101331.03;5052045;28;20351;-82
2022/08/23 05:33:36;;;;;;;12.73;7.55;;;;;;;16.50;88.41;101335.09;5045185;28;20048;-82
2022/08/23 05:36:03;;;;;;;14.30;7.32;;;;;;;16.55;88.74;101336.94;5045250;28;20033;-83
2022/08/23 05:38:30;;;;;;;14.43;8.13;;;;;;;16.60;88.44;101339.59;5053180;28;20056;-84
2022/08/23 05:40:56;;;;;;;11.65;8.02;;;;;;;16.68;87.46;101344.34;5039429;28;20029;-83
2022/08/23 05:43:24;;;;;;;10.77;7.68;;;;;;;16.77;87.21;101361.59;5040482;28;20507;-83
2022/08/23 05:46:20;;;;;;;13.98;8.15;;;;;;;16.91;87.09;101359.00;5053862;28;20484;-83
2022/08/23 05:48:47;;;;;;;13.60;7.87;;;;;;;17.07;86.21;101358.88;5045866;28;20045;-84
2022/08/23 05:51:23;;;;;;;13.50;8.90;;;;;;;17.22;85.59;101377.63;5035284;28;20283;-83
2022/08/23 05:53:51;;;;;;;13.57;8.55;;;;;;;17.29;84.96;101365.63;5051903;28;20025;-85
2022/08/23 05:56:25;;;;;;;13.50;9.20;;;;;;;17.44;84.87;101375.47;5055195;28;20035;-87
2022/08/23 05:58:53;;;;;;;15.95;8.50;;;;;;;17.51;85.19;101382.13;5037608;28;20095;-86
2022/08/23 06:01:19;;;;;;;15.68;8.38;;;;;;;17.59;84.47;101383.38;5037808;28;20021;-86
2022/08/23 06:03:46;;;;;;;16.08;8.90;;;;;;;17.66;84.44;101383.03;5055965;28;20043;-86
2022/08/23 06:06:14;;;;;;;15.40;8.98;;;;;;;17.72;84.25;101387.28;5055222;28;20499;-87
2022/08/23 06:08:40;;;;;;;15.45;9.63;;;;;;;17.80;84.18;101389.31;5056525;28;20364;-87
2022/08/23 06:11:08;;;;;;;19.67;8.80;;;;;;;17.92;82.74;101388.88;5056043;28;20025;-87
2022/08/23 06:13:37;;;;;;;16.80;8.97;;;;;;;17.97;83.31;101382.59;5035771;28;20022;-87
2022/08/23 06:16:04;;;;;;;14.03;8.73;;;;;;;18.10;81.57;101386.47;5037521;28;20308;-85
2022/08/23 06:18:29;;;;;;;19.13;9.80;;;;;;;18.11;82.17;101369.94;5034393;28;20029;-87
2022/08/23 06:21:00;;;;;;;18.50;11.10;;;;;;;18.24;81.92;101379.22;5053431;28;20043;-87
2022/08/23 06:23:25;;;;;;;17.90;10.52;;;;;;;18.30;81.57;101380.72;5052264;28;20033;-87
2022/08/23 06:25:51;;;;;;;17.02;12.13;;;;;;;18.37;81.12;101390.41;5055265;28;20096;-87
2022/08/23 06:28:16;;;;;;;18.03;11.07;;;;;;;18.40;80.41;101384.38;5056249;28;20495;-86
2022/08/23 06:30:42;;;;;;;22.17;13.10;;;;;;;18.31;81.11;101368.78;5054417;28;20029;-87
2022/08/23 06:33:07;;;;;;;21.03;13.10;;;;;;;18.29;80.92;101381.81;5054938;28;20021;-87
2022/08/23 06:35:49;;;;;;;22.00;13.10;;;;;;;18.38;80.29;101383.88;5056282;28;20033;-87
2022/08/23 06:38:15;;;;;;;23.90;12.82;;;;;;;18.51;79.79;101391.22;5056595;28;20547;-86
2022/08/23 06:40:41;;;;;;;20.80;13.77;;;;;;;18.53;79.80;101383.59;5055074;28;20052;-84
2022/08/23 06:43:06;;;;;;;17.63;13.07;;;;;;;18.57;79.57;101390.06;5055793;28;20541;-87
2022/08/23 06:45:32;;;;;;;19.50;13.60;;;;;;;18.54;79.64;101382.50;5041443;28;20033;-86
2022/08/23 06:47:58;;;;;;;20.08;12.38;;;;;;;18.55;78.72;101386.81;5043812;28;20029;-86
2022/08/23 06:50:23;;;;;;;21.33;12.30;;;;;;;18.65;78.34;101379.59;5046624;28;20032;-87
2022/08/23 06:52:49;;;;;;;22.53;12.37;;;;;;;18.77;77.92;101385.38;5055907;28;20075;-87
2022/08/23 06:55:15;;;;;;;19.80;11.80;;;;;;;18.80;77.36;101382.06;5055917;28;20032;-86
2022/08/23 06:57:41;;;;;;;21.13;12.02;;;;;;;18.88;77.40;101381.34;5056182;28;20033;-87
2022/08/23 07:00:43;;;;;;;17.70;12.02;;;;;;;19.05;77.43;101385.41;5056243;28;20032;-87
2022/08/23 07:03:09;;;;;;;22.50;10.73;;;;;;;19.13;76.67;101386.59;5056824;28;20019;-86
2022/08/23 07:05:34;;;;;;;18.30;11.87;;;;;;;19.21;76.73;101378.53;5059462;28;20299;-89
2022/08/23 07:07:59;;;;;;;20.43;10.47;;;;;;;19.30;75.80;101386.78;5043026;28;20107;-89
2022/08/23 07:10:25;;;;;;;20.07;11.13;;;;;;;19.40;76.31;101388.47;5037987;28;20028;-89
2022/08/23 07:12:50;;;;;;;20.57;10.37;;;;;;;19.46;75.34;101384.56;5048901;28;20021;-90
2022/08/23 07:15:15;;;;;;;19.97;11.47;;;;;;;19.61;75.36;101398.91;5061070;28;20099;-89
2022/08/23 07:17:40;;;;;;;16.67;10.67;;;;;;;19.68;75.19;101402.03;5060246;28;20033;-90
2022/08/23 07:20:06;;;;;;;18.00;10.63;;;;;;;19.75;74.63;101386.09;5060731;28;20017;-90
2022/08/23 07:22:31;;;;;;;16.20;10.40;;;;;;;19.84;73.66;101383.44;5057711;28;20059;-89
2022/08/23 07:24:57;;;;;;;16.17;10.37;;;;;;;19.94;73.45;101399.56;5059747;28;20032;-89
2022/08/23 07:27:23;;;;;;;19.93;11.00;;;;;;;20.01;72.90;101393.69;5055911;28;20162;-87
2022/08/23 07:29:48;;;;;;;18.08;10.20;;;;;;;20.12;72.93;101399.69;5053350;28;20062;-86
2022/08/23 07:32:13;;;;;;;21.67;10.33;;;;;;;20.15;72.80;101401.81;5052024;28;20614;-86
2022/08/23 07:34:39;;;;;;;15.27;9.73;;;;;;;20.24;72.93;101397.22;5050293;28;20033;-86
2022/08/23 07:37:05;;;;;;;22.00;9.70;;;;;;;20.38;72.43;101412.66;5053290;28;20036;-87
2022/08/23 07:39:30;;;;;;;24.25;9.82;;;;;;;20.53;72.61;101408.75;5053529;28;20029;-86
2022/08/23 07:41:58;;;;;;;21.00;9.43;;;;;;;20.56;70.98;101405.41;5051224;28;20036;-86
2022/08/23 07:44:23;;;;;;;17.43;9.70;;;;;;;20.71;70.13;101409.66;5052120;28;20035;-85
2022/08/23 07:46:49;;;;;;;18.05;9.13;;;;;;;20.75;70.46;101409.84;5052546;28;20028;-86
2022/08/23 07:49:15;;;;;;;23.63;9.40;;;;;;;20.93;69.23;101422.44;5051073;28;20032;-86
2022/08/23 07:51:45;;;;;;;16.15;8.80;;;;;;;20.97;68.50;101423.44;5051531;28;20044;-86
2022/08/23 07:54:11;;;;;;;21.43;9.00;;;;;;;21.08;68.08;101425.88;5052153;28;20106;-87
2022/08/23 07:56:36;;;;;;;22.00;10.03;;;;;;;21.17;67.47;101424.00;5051868;28;20297;-86
2022/08/23 07:59:03;;;;;;;17.38;8.23;;;;;;;21.44;67.96;101433.03;5051287;28;20025;-86
2022/08/23 08:01:29;;;;;;;20.55;8.75;;;;;;;21.52;67.17;101425.97;5051295;28;20075;-87
2022/08/23 08:03:58;;;;;;;18.57;8.40;;;;;;;21.67;66.53;101432.94;5051193;28;20053;-87
2022/08/23 08:06:34;;;;;;;19.13;8.70;;;;;;;21.78;66.56;101435.03;5045273;28;20037;-86
2022/08/23 08:09:01;;;;;;;18.45;7.85;;;;;;;21.86;66.06;101433.44;5050483;28;20033;-86
2022/08/23 08:11:31;;;;;;;15.38;7.47;;;;;;;22.06;65.44;101437.44;5051016;28;20515;-87
2022/08/23 08:13:57;;;;;;;19.93;7.47;;;;;;;22.23;64.41;101438.56;5049660;28;20033;-86
2022/08/23 08:16:35;;;;;;;15.90;7.30;;;;;;;22.39;64.46;101438.88;5052781;28;20851;-88
2022/08/23 08:19:03;;;;;;;17.48;7.05;;;;;;;22.60;63.85;101443.69;5050006;28;20449;-87
2022/08/23 08:21:28;;;;;;;19.85;7.82;;;;;;;22.63;61.55;101443.03;5052801;28;20052;-85
2022/08/23 08:23:56;;;;;;;18.77;7.83;;;;;;;22.80;61.21;101447.63;5049976;28;20096;-86
2022/08/23 08:26:21;;;;;;;16.07;7.23;;;;;;;23.01;61.94;101453.16;5045938;28;20730;-85
2022/08/23 08:28:47;;;;;;;15.40;6.65;;;;;;;23.27;61.21;101444.09;5049679;28;20105;-86
2022/08/23 08:31:13;;;;;;;19.08;8.20;;;;;;;23.40;59.93;101439.53;5049388;28;20036;-86
2022/08/23 08:33:38;;;;;;;18.27;7.03;;;;;;;23.44;58.66;101435.78;5050598;28;20388;-86
2022/08/23 08:36:05;;;;;;;21.10;7.17;;;;;;;23.67;59.41;101440.13;5053582;28;20496;-88
2022/08/23 08:38:32;;;;;;;18.98;7.35;;;;;;;23.82;58.16;101444.22;5056175;28;20025;-90
2022/08/23 08:41:15;;;;;;;17.17;7.38;;;;;;;24.01;58.64;101441.84;5047911;28;20413;-89
2022/08/23 08:44:04;;;;;;;19.90;7.15;;;;;;;24.19;58.24;101447.94;5047741;28;20068;-88
2022/08/23 08:47:02;;;;;;;18.70;7.03;;;;;;;24.36;56.56;101440.72;5050203;28;20052;-89
2022/08/23 08:49:59;;;;;;;17.33;6.63;;;;;;;24.53;56.45;101449.91;5049276;28;20033;-89
2022/08/23 08:52:34;;;;;;;14.43;6.53;;;;;;;24.70;55.50;101443.41;5049463;28;20102;-89
2022/08/23 08:55:11;;;;;;;16.48;5.70;;;;;;;24.85;54.79;101451.00;5048111;28;20041;-89
2022/08/23 08:57:43;;;;;;;18.05;5.53;;;;;;;25.01;53.39;101447.63;5035994;28;20029;-89
2022/08/23 09:00:12;;;;;;;17.40;5.20;;;;;;;25.09;52.34;101443.94;5053132;28;20029;-89
2022/08/23 09:02:38;;;;;;;18.40;5.63;;;;;;;25.33;51.40;101453.31;5051532;28;20279;-88
2022/08/23 09:05:11;;;;;;;16.45;4.82;;;;;;;25.50;52.82;101457.75;5053180;28;20029;-88
2022/08/23 09:08:05;;;;;;;14.02;4.78;;;;;;;25.74;51.71;101467.09;5050664;28;20041;-88
2022/08/23 09:10:57;;;;;;;11.68;3.85;;;;;;;25.70;51.78;101453.28;4991481;28;20031;-91
2022/08/23 09:13:44;;;;;;;8.25;3.55;;;;;;;26.04;51.73;101464.84;5053498;28;20082;-92
2022/08/23 09:16:28;;;;;;;8.70;3.43;;;;;;;26.32;49.26;101460.53;5062034;28;20033;-90
2022/08/23 09:18:54;;;;;;;9.77;3.50;;;;;;;26.44;49.27;101461.28;5058432;28;20321;-89
2022/08/23 09:21:20;;;;;;;16.77;4.05;;;;;;;26.51;48.31;101465.34;5056925;28;20021;-90
2022/08/23 09:23:47;;;;;;;14.20;3.60;;;;;;;26.51;47.97;101462.59;5053731;28;20032;-88
2022/08/23 09:26:22;;;;;;;14.00;3.00;;;;;;;26.64;48.73;101458.66;5045315;28;20280;-87
2022/08/23 09:28:51;;;;;;;7.93;3.20;;;;;;;26.83;47.42;101471.72;5048044;28;20140;-88
2022/08/23 09:31:38;;;;;;;6.03;3.30;;;;;;;26.86;47.31;101464.69;5048245;28;20037;-86
2022/08/23 09:34:04;;;;;;;9.75;3.10;;;;;;;26.96;47.77;101469.66;5050077;28;20504;-87
2022/08/23 09:36:36;;;;;;;10.43;3.42;;;;;;;27.12;46.91;101471.59;5050316;28;20021;-88
2022/08/23 09:39:23;;;;;;;9.10;2.97;;;;;;;27.25;46.12;101469.56;5048589;28;20044;-86
2022/08/23 09:41:50;;;;;;;6.65;2.95;;;;;;;27.28;45.53;101468.84;5048708;28;20716;-85
2022/08/23 09:44:33;;;;;;;7.00;2.88;;;;;;;27.33;47.29;101477.63;5045264;28;20060;-86
2022/08/23 09:47:15;;;;;;;8.40;2.60;;;;;;;27.51;46.01;101474.50;5051071;28;20392;-87
2022/08/23 09:49:43;;;;;;;6.63;2.50;;;;;;;27.48;45.00;101466.97;5052924;28;20025;-86
2022/08/23 09:52:33;;;;;;;7.87;2.60;;;;;;;27.37;44.81;101472.19;5029505;28;20333;-86
2022/08/23 09:55:01;;;;;;;10.98;2.58;;;;;;;27.13;44.21;101467.72;5034845;28;20041;-87
2022/08/23 09:57:30;;;;;;;7.97;2.42;;;;;;;27.19;44.12;101467.06;5054773;28;20029;-86
2022/08/23 10:00:21;;;;;;;8.80;2.38;;;;;;;27.19;44.66;101469.03;5058506;28;20029;-86
2022/08/23 10:02:47;;;;;;;5.85;2.40;;;;;;;27.35;44.88;101464.31;5061530;28;20097;-84
2022/08/23 10:05:17;;;;;;;7.80;2.70;;;;;;;27.39;44.17;101458.09;5066008;28;20036;-85
2022/08/23 10:07:52;;;;;;;11.75;2.90;;;;;;;27.57;43.84;101462.03;5061331;28;20025;-86
2022/08/23 10:10:23;;;;;;;7.65;2.47;;;;;;;27.62;42.24;101456.25;5054006;28;20029;-86
2022/08/23 10:12:50;;;;;;;8.25;2.60;;;;;;;27.65;42.71;101461.06;5050833;28;20032;-85
2022/08/23 10:15:16;;;;;;;6.32;2.67;;;;;;;27.91;42.80;101451.38;5050067;28;20013;-85
2022/08/23 10:18:06;;;;;;;9.17;3.17;;;;;;;27.91;44.22;101454.13;5064300;28;20032;-85
2022/08/23 10:20:46;;;;;;;7.28;2.63;;;;;;;27.84;42.67;101448.47;5042631;28;20087;-85
2022/08/23 10:23:47;;;;;;;4.93;2.22;;;;;;;28.03;43.82;101449.63;5061218;28;20055;-85
2022/08/23 10:26:34;;;;;;;7.55;2.60;;;;;;;28.09;42.61;101453.69;5068720;28;20021;-85
2022/08/23 10:29:37;;;;;;;5.53;2.22;;;;;;;28.08;42.50;101454.84;5073486;28;20040;-87
2022/08/23 10:32:30;;;;;;;7.55;2.95;;;;;;;28.10;43.29;101449.81;5067434;28;20021;-85
2022/08/23 10:35:14;;;;;;;9.73;3.10;;;;;;;28.14;42.33;101447.88;5068219;28;20071;-85
2022/08/23 10:37:44;;;;;;;7.27;2.83;;;;;;;28.35;42.89;101446.69;5063489;28;20048;-88
2022/08/23 10:40:24;;;;;;;6.50;2.30;;;;;;;28.40;40.94;101449.16;5068432;28;20346;-85
2022/08/23 10:43:12;;;;;;;9.77;2.42;;;;;;;28.55;41.02;101445.50;5073630;28;20096;-88
2022/08/23 10:45:40;;;;;;;7.32;2.60;;;;;;;28.75;41.58;101439.16;5073498;28;20452;-88
2022/08/23 10:48:26;;;;;;;9.63;2.92;;;;;;;28.99;41.13;101443.50;5066644;28;20048;-83
2022/08/23 10:50:56;;;;;;;8.70;2.95;;;;;;;29.06;40.04;101435.31;5053710;28;20044;-87
2022/08/23 10:53:30;;;;;;;5.97;2.40;;;;;;;29.19;40.60;101435.13;5052237;28;20021;-85
2022/08/23 10:56:04;;;;;;;7.60;2.67;;;;;;;29.22;41.03;101435.16;5067931;28;20032;-87
2022/08/23 10:58:42;;;;;;;8.13;2.88;;;;;;;29.25;40.13;101436.38;5068599;28;20031;-87
2022/08/23 11:01:11;;;;;;;6.22;2.67;;;;;;;29.45;40.03;101439.84;5070352;28;20436;-86
2022/08/23 11:03:50;;;;;;;7.90;2.80;;;;;;;29.15;40.25;101438.59;5072570;28;20131;-86
2022/08/23 11:06:40;;;;;;;8.27;2.97;;;;;;;29.17;40.53;101430.75;5072385;28;20322;-89
2022/08/23 11:09:18;;;;;;;5.97;2.65;;;;;;;29.41;40.14;101433.47;5076777;28;20033;-88
2022/08/23 11:12:12;;;;;;;7.97;2.58;;;;;;;29.85;41.25;101434.81;5075309;28;20043;-88
2022/08/23 11:14:46;;;;;;;6.70;2.60;;;;;;;30.12;39.36;101421.72;5066756;28;20028;-87
2022/08/23 11:17:28;;;;;;;8.07;2.95;;;;;;;30.23;39.50;101427.38;5051806;28;20484;-87
2022/08/23 11:20:03;;;;;;;7.95;2.78;;;;;;;29.84;39.21;101434.03;5054350;28;20028;-87
2022/08/23 11:22:30;;;;;;;6.38;2.67;;;;;;;29.79;39.90;101431.59;5063191;28;20094;-86
2022/08/23 11:24:58;;;;;;;5.95;2.88;;;;;;;29.81;39.85;101433.97;5073466;28;20043;-86
2022/08/23 11:27:29;;;;;;;6.30;2.85;;;;;;;29.96;38.21;101434.97;5071284;28;20036;-87
2022/08/23 11:29:55;;;;;;;7.23;2.40;;;;;;;30.14;38.01;101433.19;5073300;28;20052;-87
2022/08/23 11:32:30;;;;;;;6.43;3.57;;;;;;;30.13;38.42;101434.38;5073168;28;20291;-87
2022/08/23 11:35:39;;;;;;;7.80;3.13;;;;;;;30.52;39.53;101433.16;5075109;28;20013;-89
2022/08/23 11:38:05;;;;;;;9.60;2.85;;;;;;;30.95;37.03;101435.50;5053099;28;20044;-88
2022/08/23 11:40:55;;;;;;;7.63;3.03;;;;;;;31.09;37.84;101434.78;5053465;28;20068;-86
2022/08/23 11:43:31;;;;;;;7.93;2.75;;;;;;;31.16;37.22;101440.41;5069623;28;20021;-88